Benavente Webcams

Here you can see the latest view from one live webcam in the destination of Benavente, Portugal. Both the current (latest) image, and the most recent daylight image are available for each webcam.

Now Showing [ 1-1 ] of [ 1 ]
Webcam in Benavente

Benavente › North East: AIrport, METAR: BENAV 180005Z 36004KT 17/14 Q1015

Current or last view Benavente › North East: AIrport, METAR: BENAV 180005Z 36004KT 17/14 Q1015 Last daylight view from Benavente › North East: AIrport, METAR: BENAV 180005Z 36004KT 17/14 Q1015
Current [Last] & Daylight Views :: Click here for full size view